sensor_id;sensor_type;location;lat;lon;timestamp;temperature;humidity
52531;DHT22;38441;52.894;6.040;2023-06-26T00:01:13;26.20;99.90
52531;DHT22;38441;52.894;6.040;2023-06-26T00:03:39;25.00;99.90
52531;DHT22;38441;52.894;6.040;2023-06-26T00:09:01;22.80;99.90
52531;DHT22;38441;52.894;6.040;2023-06-26T00:11:27;22.90;99.90
52531;DHT22;38441;52.894;6.040;2023-06-26T00:13:56;24.00;99.90
52531;DHT22;38441;52.894;6.040;2023-06-26T00:16:21;24.90;99.90
52531;DHT22;38441;52.894;6.040;2023-06-26T00:18:47;24.40;99.90
52531;DHT22;38441;52.894;6.040;2023-06-26T00:21:12;24.30;99.90
52531;DHT22;38441;52.894;6.040;2023-06-26T00:23:38;24.40;99.90
52531;DHT22;38441;52.894;6.040;2023-06-26T00:26:04;23.90;99.90
52531;DHT22;38441;52.894;6.040;2023-06-26T00:28:30;23.60;99.90
52531;DHT22;38441;52.894;6.040;2023-06-26T00:30:55;24.00;99.90
52531;DHT22;38441;52.894;6.040;2023-06-26T00:33:21;24.00;99.90
52531;DHT22;38441;52.894;6.040;2023-06-26T00:35:47;24.00;99.90
52531;DHT22;38441;52.894;6.040;2023-06-26T00:38:13;24.70;99.90
52531;DHT22;38441;52.894;6.040;2023-06-26T00:40:38;24.30;99.90
52531;DHT22;38441;52.894;6.040;2023-06-26T00:43:04;22.60;99.90
52531;DHT22;38441;52.894;6.040;2023-06-26T00:45:30;20.50;99.90
52531;DHT22;38441;52.894;6.040;2023-06-26T00:47:56;24.00;99.90
52531;DHT22;38441;52.894;6.040;2023-06-26T00:50:22;24.60;99.90
52531;DHT22;38441;52.894;6.040;2023-06-26T00:52:48;25.40;99.90
52531;DHT22;38441;52.894;6.040;2023-06-26T00:55:14;23.90;99.90
52531;DHT22;38441;52.894;6.040;2023-06-26T00:57:40;24.80;99.90
52531;DHT22;38441;52.894;6.040;2023-06-26T01:00:09;21.70;99.90
52531;DHT22;38441;52.894;6.040;2023-06-26T01:02:35;23.20;99.90
52531;DHT22;38441;52.894;6.040;2023-06-26T01:05:05;25.60;99.90
52531;DHT22;38441;52.894;6.040;2023-06-26T01:07:33;22.40;99.90
52531;DHT22;38441;52.894;6.040;2023-06-26T01:10:06;23.20;99.90
52531;DHT22;38441;52.894;6.040;2023-06-26T01:12:34;22.40;99.90
52531;DHT22;38441;52.894;6.040;2023-06-26T01:15:01;23.80;99.90
52531;DHT22;38441;52.894;6.040;2023-06-26T01:17:27;22.40;99.90
52531;DHT22;38441;52.894;6.040;2023-06-26T01:20:01;23.80;99.90
52531;DHT22;38441;52.894;6.040;2023-06-26T01:25:53;23.00;99.90
52531;DHT22;38441;52.894;6.040;2023-06-26T01:28:22;22.30;99.90
52531;DHT22;38441;52.894;6.040;2023-06-26T01:30:50;21.60;99.90
52531;DHT22;38441;52.894;6.040;2023-06-26T01:33:16;23.10;99.90
52531;DHT22;38441;52.894;6.040;2023-06-26T01:35:42;25.80;99.90
52531;DHT22;38441;52.894;6.040;2023-06-26T01:38:47;24.50;99.90
52531;DHT22;38441;52.894;6.040;2023-06-26T01:41:12;24.60;99.90
52531;DHT22;38441;52.894;6.040;2023-06-26T01:44:10;24.20;99.90
52531;DHT22;38441;52.894;6.040;2023-06-26T01:46:53;22.30;99.90
52531;DHT22;38441;52.894;6.040;2023-06-26T01:49:30;22.90;99.90
52531;DHT22;38441;52.894;6.040;2023-06-26T01:52:24;22.30;99.90
52531;DHT22;38441;52.894;6.040;2023-06-26T01:55:12;22.30;99.90
52531;DHT22;38441;52.894;6.040;2023-06-26T01:57:41;22.50;99.90
52531;DHT22;38441;52.894;6.040;2023-06-26T02:00:08;23.50;99.90
52531;DHT22;38441;52.894;6.040;2023-06-26T02:02:36;22.20;99.90
52531;DHT22;38441;52.894;6.040;2023-06-26T02:12:51;22.30;99.90
52531;DHT22;38441;52.894;6.040;2023-06-26T02:15:19;25.10;99.90
52531;DHT22;38441;52.894;6.040;2023-06-26T02:18:10;19.50;99.90
52531;DHT22;38441;52.894;6.040;2023-06-26T02:20:38;23.80;99.90
52531;DHT22;38441;52.894;6.040;2023-06-26T02:23:08;23.50;99.90
52531;DHT22;38441;52.894;6.040;2023-06-26T02:25:36;23.10;99.90
52531;DHT22;38441;52.894;6.040;2023-06-26T02:28:05;23.30;99.90
52531;DHT22;38441;52.894;6.040;2023-06-26T02:30:31;23.20;99.90
52531;DHT22;38441;52.894;6.040;2023-06-26T02:32:56;23.90;99.90
52531;DHT22;38441;52.894;6.040;2023-06-26T02:35:45;23.70;99.90
52531;DHT22;38441;52.894;6.040;2023-06-26T02:39:10;21.60;99.90
52531;DHT22;38441;52.894;6.040;2023-06-26T04:14:27;21.40;99.90
52531;DHT22;38441;52.894;6.040;2023-06-26T04:17:05;20.60;99.90
52531;DHT22;38441;52.894;6.040;2023-06-26T04:27:56;22.90;99.90
52531;DHT22;38441;52.894;6.040;2023-06-26T05:31:47;20.70;99.90
52531;DHT22;38441;52.894;6.040;2023-06-26T05:35:07;21.30;99.90
52531;DHT22;38441;52.894;6.040;2023-06-26T05:41:01;22.10;99.90
52531;DHT22;38441;52.894;6.040;2023-06-26T05:43:43;19.60;99.90
52531;DHT22;38441;52.894;6.040;2023-06-26T05:53:44;22.00;99.90
52531;DHT22;38441;52.894;6.040;2023-06-26T05:56:36;19.70;99.90
52531;DHT22;38441;52.894;6.040;2023-06-26T06:02:54;19.50;99.90
52531;DHT22;38441;52.894;6.040;2023-06-26T06:05:44;21.60;99.90
52531;DHT22;38441;52.894;6.040;2023-06-26T06:11:26;22.20;99.90
52531;DHT22;38441;52.894;6.040;2023-06-26T06:14:09;22.90;99.90
52531;DHT22;38441;52.894;6.040;2023-06-26T06:16:47;21.70;99.90
52531;DHT22;38441;52.894;6.040;2023-06-26T06:19:12;22.90;99.90
52531;DHT22;38441;52.894;6.040;2023-06-26T06:21:39;22.10;99.90
52531;DHT22;38441;52.894;6.040;2023-06-26T06:24:05;22.30;99.90
52531;DHT22;38441;52.894;6.040;2023-06-26T06:26:32;21.00;99.90
52531;DHT22;38441;52.894;6.040;2023-06-26T06:28:58;21.50;99.90
52531;DHT22;38441;52.894;6.040;2023-06-26T06:31:24;21.60;99.90
52531;DHT22;38441;52.894;6.040;2023-06-26T06:33:49;22.50;99.90
52531;DHT22;38441;52.894;6.040;2023-06-26T06:36:15;22.00;99.90
52531;DHT22;38441;52.894;6.040;2023-06-26T06:38:47;23.70;99.90
52531;DHT22;38441;52.894;6.040;2023-06-26T06:41:13;21.90;99.90
52531;DHT22;38441;52.894;6.040;2023-06-26T06:43:39;21.40;99.90
52531;DHT22;38441;52.894;6.040;2023-06-26T06:46:05;22.40;99.90
52531;DHT22;38441;52.894;6.040;2023-06-26T06:48:31;22.40;99.90
52531;DHT22;38441;52.894;6.040;2023-06-26T06:51:02;21.80;99.90
52531;DHT22;38441;52.894;6.040;2023-06-26T06:53:29;21.10;99.90
52531;DHT22;38441;52.894;6.040;2023-06-26T06:55:55;19.80;99.90
52531;DHT22;38441;52.894;6.040;2023-06-26T06:58:21;22.50;99.90
52531;DHT22;38441;52.894;6.040;2023-06-26T07:00:48;23.20;99.90
52531;DHT22;38441;52.894;6.040;2023-06-26T07:03:17;21.50;99.90
52531;DHT22;38441;52.894;6.040;2023-06-26T07:05:52;22.20;99.90
52531;DHT22;38441;52.894;6.040;2023-06-26T07:08:28;22.90;99.90
52531;DHT22;38441;52.894;6.040;2023-06-26T07:10:56;21.90;99.90
52531;DHT22;38441;52.894;6.040;2023-06-26T07:13:23;24.60;99.90
52531;DHT22;38441;52.894;6.040;2023-06-26T07:21:04;21.30;99.90
52531;DHT22;38441;52.894;6.040;2023-06-26T07:23:30;21.50;99.90
52531;DHT22;38441;52.894;6.040;2023-06-26T07:25:55;23.20;99.90
52531;DHT22;38441;52.894;6.040;2023-06-26T07:28:21;22.70;99.90
52531;DHT22;38441;52.894;6.040;2023-06-26T07:30:47;22.60;99.90
52531;DHT22;38441;52.894;6.040;2023-06-26T07:33:12;23.30;99.90
52531;DHT22;38441;52.894;6.040;2023-06-26T07:35:40;23.20;99.90
52531;DHT22;38441;52.894;6.040;2023-06-26T07:38:06;23.80;99.90
52531;DHT22;38441;52.894;6.040;2023-06-26T07:40:35;24.90;99.90
52531;DHT22;38441;52.894;6.040;2023-06-26T07:43:03;22.90;99.90
52531;DHT22;38441;52.894;6.040;2023-06-26T07:45:29;23.10;99.90
52531;DHT22;38441;52.894;6.040;2023-06-26T07:47:57;24.60;99.90
52531;DHT22;38441;52.894;6.040;2023-06-26T07:50:34;23.60;99.90
52531;DHT22;38441;52.894;6.040;2023-06-26T07:53:11;23.90;99.90
52531;DHT22;38441;52.894;6.040;2023-06-26T07:56:00;24.70;99.90
52531;DHT22;38441;52.894;6.040;2023-06-26T08:03:06;23.90;99.90
52531;DHT22;38441;52.894;6.040;2023-06-26T13:53:43;24.80;96.50
52531;DHT22;38441;52.894;6.040;2023-06-26T15:49:14;21.20;98.00
52531;DHT22;38441;52.894;6.040;2023-06-26T16:05:05;22.20;96.40
52531;DHT22;38441;52.894;6.040;2023-06-26T16:07:46;24.70;97.40
52531;DHT22;38441;52.894;6.040;2023-06-26T16:10:44;25.00;97.40
52531;DHT22;38441;52.894;6.040;2023-06-26T16:26:59;21.90;96.00
52531;DHT22;38441;52.894;6.040;2023-06-26T16:37:13;21.70;96.10
52531;DHT22;38441;52.894;6.040;2023-06-26T16:40:20;22.70;98.10
52531;DHT22;38441;52.894;6.040;2023-06-26T16:42:45;23.10;98.70
52531;DHT22;38441;52.894;6.040;2023-06-26T16:45:11;23.30;99.90
52531;DHT22;38441;52.894;6.040;2023-06-26T16:47:39;23.80;99.50
52531;DHT22;38441;52.894;6.040;2023-06-26T16:50:07;22.30;99.10
52531;DHT22;38441;52.894;6.040;2023-06-26T16:52:33;21.70;97.90
52531;DHT22;38441;52.894;6.040;2023-06-26T16:54:59;22.80;98.70
52531;DHT22;38441;52.894;6.040;2023-06-26T16:57:24;23.60;99.40
52531;DHT22;38441;52.894;6.040;2023-06-26T16:59:50;22.50;98.60
52531;DHT22;38441;52.894;6.040;2023-06-26T17:02:16;22.20;99.00
52531;DHT22;38441;52.894;6.040;2023-06-26T17:04:42;23.40;98.90
52531;DHT22;38441;52.894;6.040;2023-06-26T17:07:17;22.60;99.90
52531;DHT22;38441;52.894;6.040;2023-06-26T17:09:49;23.40;97.10
52531;DHT22;38441;52.894;6.040;2023-06-26T17:12:21;22.50;99.40
52531;DHT22;38441;52.894;6.040;2023-06-26T17:17:47;21.10;96.40
52531;DHT22;38441;52.894;6.040;2023-06-26T17:20:13;23.10;98.90
52531;DHT22;38441;52.894;6.040;2023-06-26T17:22:44;22.10;99.60
52531;DHT22;38441;52.894;6.040;2023-06-26T17:25:10;23.40;98.70
52531;DHT22;38441;52.894;6.040;2023-06-26T17:27:39;21.60;98.30
52531;DHT22;38441;52.894;6.040;2023-06-26T17:32:40;20.70;96.50
52531;DHT22;38441;52.894;6.040;2023-06-26T17:35:20;22.20;99.10
52531;DHT22;38441;52.894;6.040;2023-06-26T17:37:45;19.60;96.60
52531;DHT22;38441;52.894;6.040;2023-06-26T17:46:17;19.40;98.10
52531;DHT22;38441;52.894;6.040;2023-06-26T17:48:57;19.50;99.90
52531;DHT22;38441;52.894;6.040;2023-06-26T17:51:25;21.10;99.00
52531;DHT22;38441;52.894;6.040;2023-06-26T17:54:00;21.80;98.70
52531;DHT22;38441;52.894;6.040;2023-06-26T17:56:54;20.60;98.50
52531;DHT22;38441;52.894;6.040;2023-06-26T17:59:44;21.60;99.60
52531;DHT22;38441;52.894;6.040;2023-06-26T18:02:18;22.60;99.70
52531;DHT22;38441;52.894;6.040;2023-06-26T18:04:47;23.10;97.80
52531;DHT22;38441;52.894;6.040;2023-06-26T18:07:22;22.00;99.90
52531;DHT22;38441;52.894;6.040;2023-06-26T18:09:50;19.60;98.40
52531;DHT22;38441;52.894;6.040;2023-06-26T18:12:16;21.20;99.50
52531;DHT22;38441;52.894;6.040;2023-06-26T18:17:52;20.10;98.30
52531;DHT22;38441;52.894;6.040;2023-06-26T18:20:21;21.40;99.30
52531;DHT22;38441;52.894;6.040;2023-06-26T18:26:45;19.20;97.10
52531;DHT22;38441;52.894;6.040;2023-06-26T20:36:47;18.20;99.90
52531;DHT22;38441;52.894;6.040;2023-06-26T20:39:18;19.90;99.90
52531;DHT22;38441;52.894;6.040;2023-06-26T20:41:54;17.20;99.90
52531;DHT22;38441;52.894;6.040;2023-06-26T20:44:25;19.00;99.90
52531;DHT22;38441;52.894;6.040;2023-06-26T20:50:53;17.90;99.90
52531;DHT22;38441;52.894;6.040;2023-06-26T21:12:05;18.40;99.90
52531;DHT22;38441;52.894;6.040;2023-06-26T21:15:37;18.80;99.90
52531;DHT22;38441;52.894;6.040;2023-06-26T22:03:34;16.90;99.90
52531;DHT22;38441;52.894;6.040;2023-06-26T22:06:02;19.00;99.90
52531;DHT22;38441;52.894;6.040;2023-06-26T22:08:36;17.10;99.90
52531;DHT22;38441;52.894;6.040;2023-06-26T22:11:02;18.30;99.90
52531;DHT22;38441;52.894;6.040;2023-06-26T22:13:30;17.80;99.90
52531;DHT22;38441;52.894;6.040;2023-06-26T22:15:55;17.70;99.90
52531;DHT22;38441;52.894;6.040;2023-06-26T22:18:21;16.50;99.90
52531;DHT22;38441;52.894;6.040;2023-06-26T22:20:47;17.70;99.90
52531;DHT22;38441;52.894;6.040;2023-06-26T22:23:17;18.40;99.90
52531;DHT22;38441;52.894;6.040;2023-06-26T22:25:44;16.90;99.90
52531;DHT22;38441;52.894;6.040;2023-06-26T22:28:12;18.60;99.90
52531;DHT22;38441;52.894;6.040;2023-06-26T22:30:40;17.60;99.90
52531;DHT22;38441;52.894;6.040;2023-06-26T22:33:13;17.60;99.90
52531;DHT22;38441;52.894;6.040;2023-06-26T22:35:44;17.90;99.90
52531;DHT22;38441;52.894;6.040;2023-06-26T22:38:10;17.30;99.90
52531;DHT22;38441;52.894;6.040;2023-06-26T22:40:48;16.30;99.90
52531;DHT22;38441;52.894;6.040;2023-06-26T22:43:19;14.60;99.90
52531;DHT22;38441;52.894;6.040;2023-06-26T22:45:51;17.80;99.90
52531;DHT22;38441;52.894;6.040;2023-06-26T22:51:52;15.00;99.90
52531;DHT22;38441;52.894;6.040;2023-06-26T22:55:04;17.90;99.90
52531;DHT22;38441;52.894;6.040;2023-06-26T22:57:47;16.80;99.90
52531;DHT22;38441;52.894;6.040;2023-06-26T23:00:49;15.60;99.90
52531;DHT22;38441;52.894;6.040;2023-06-26T23:03:20;17.80;99.90
52531;DHT22;38441;52.894;6.040;2023-06-26T23:05:48;17.80;99.90
52531;DHT22;38441;52.894;6.040;2023-06-26T23:08:25;15.60;99.90
52531;DHT22;38441;52.894;6.040;2023-06-26T23:10:52;15.50;99.90
52531;DHT22;38441;52.894;6.040;2023-06-26T23:13:18;17.00;99.90
52531;DHT22;38441;52.894;6.040;2023-06-26T23:15:46;16.80;99.90
52531;DHT22;38441;52.894;6.040;2023-06-26T23:18:22;18.00;99.90
52531;DHT22;38441;52.894;6.040;2023-06-26T23:20:59;19.10;99.90
52531;DHT22;38441;52.894;6.040;2023-06-26T23:23:28;16.10;99.90
52531;DHT22;38441;52.894;6.040;2023-06-26T23:25:56;16.70;99.90
52531;DHT22;38441;52.894;6.040;2023-06-26T23:28:44;16.10;99.90
52531;DHT22;38441;52.894;6.040;2023-06-26T23:31:20;14.20;99.90
52531;DHT22;38441;52.894;6.040;2023-06-26T23:33:56;16.50;99.90
52531;DHT22;38441;52.894;6.040;2023-06-26T23:36:36;17.20;99.90
52531;DHT22;38441;52.894;6.040;2023-06-26T23:39:17;16.30;99.90
52531;DHT22;38441;52.894;6.040;2023-06-26T23:42:21;16.00;99.90
52531;DHT22;38441;52.894;6.040;2023-06-26T23:45:02;17.70;99.90
52531;DHT22;38441;52.894;6.040;2023-06-26T23:47:30;17.30;99.90
52531;DHT22;38441;52.894;6.040;2023-06-26T23:49:58;16.10;99.90
52531;DHT22;38441;52.894;6.040;2023-06-26T23:52:26;17.60;99.90
52531;DHT22;38441;52.894;6.040;2023-06-26T23:54:54;16.70;99.90
52531;DHT22;38441;52.894;6.040;2023-06-26T23:57:26;15.70;99.90
52531;DHT22;38441;52.894;6.040;2023-06-26T23:59:55;17.40;99.90
